createdAt,value
2022-11-05T00:02:01.921Z,16.23
2022-11-05T00:04:48.737Z,20.50
2022-11-05T00:07:40.033Z,15.23
2022-11-05T00:10:15.313Z,21.40
2022-11-05T00:12:58.141Z,17.03
2022-11-05T00:15:43.904Z,21.67
2022-11-05T00:18:13.804Z,19.67
2022-11-05T00:20:45.555Z,18.97
2022-11-05T00:23:31.529Z,16.83
2022-11-05T00:26:01.944Z,19.70
2022-11-05T00:28:31.698Z,19.83
2022-11-05T00:31:02.633Z,16.40
2022-11-05T00:33:32.260Z,20.10
2022-11-05T00:36:03.367Z,18.30
2022-11-05T00:38:33.564Z,18.93
2022-11-05T00:41:01.796Z,16.47
2022-11-05T00:43:47.814Z,15.27
2022-11-05T00:46:15.926Z,16.07
2022-11-05T00:49:07.388Z,16.50
2022-11-05T00:51:36.783Z,22.30
2022-11-05T00:54:05.445Z,22.10
2022-11-05T00:56:33.800Z,17.30
2022-11-05T00:59:01.840Z,17.87
2022-11-05T01:01:29.875Z,15.53
2022-11-05T01:03:58.357Z,18.00
2022-11-05T01:06:26.331Z,18.50
2022-11-05T01:08:57.137Z,14.03
2022-11-05T01:11:34.896Z,21.37
2022-11-05T01:14:03.984Z,14.53
2022-11-05T01:16:33.168Z,16.17
2022-11-05T01:19:03.035Z,17.60
2022-11-05T01:21:31.102Z,18.33
2022-11-05T01:24:00.553Z,13.23
2022-11-05T01:26:29.448Z,13.90
2022-11-05T01:29:00.257Z,11.40
2022-11-05T01:31:30.087Z,14.20
2022-11-05T01:33:58.103Z,17.37
2022-11-05T01:36:26.106Z,11.80
2022-11-05T01:38:54.560Z,15.50
2022-11-05T01:41:23.899Z,12.60
2022-11-05T01:43:54.848Z,17.83
2022-11-05T01:46:27.525Z,17.37
2022-11-05T01:49:03.263Z,15.63
2022-11-05T01:51:32.488Z,10.37
2022-11-05T01:54:06.501Z,12.70
2022-11-05T01:56:40.021Z,18.97
2022-11-05T01:59:11.167Z,16.70
2022-11-05T02:01:40.468Z,18.20
2022-11-05T02:04:12.639Z,18.90
2022-11-05T02:06:49.192Z,17.83
2022-11-05T02:09:25.406Z,20.60
2022-11-05T02:11:55.593Z,14.73
2022-11-05T02:14:23.706Z,18.80
2022-11-05T02:16:58.057Z,14.77
2022-11-05T02:19:52.413Z,19.43
2022-11-05T02:22:49.744Z,16.73
2022-11-05T02:25:42.681Z,18.27
2022-11-05T02:28:39.252Z,18.43
2022-11-05T02:31:14.645Z,16.97
2022-11-05T02:33:57.348Z,18.67
2022-11-05T02:36:38.018Z,21.70
2022-11-05T02:39:16.882Z,15.37
2022-11-05T02:42:03.509Z,17.83
2022-11-05T02:44:43.112Z,23.10
2022-11-05T02:47:24.668Z,14.23
2022-11-05T02:50:04.797Z,20.60
2022-11-05T02:52:38.604Z,20.37
2022-11-05T02:55:17.884Z,16.20
2022-11-05T02:57:49.242Z,19.60
2022-11-05T03:00:50.805Z,15.70
2022-11-05T03:03:30.536Z,21.33
2022-11-05T03:06:30.154Z,17.17
2022-11-05T03:09:42.725Z,24.43
2022-11-05T03:12:31.040Z,18.00
2022-11-05T03:15:08.333Z,19.50
2022-11-05T03:17:45.824Z,20.83
2022-11-05T03:20:20.665Z,15.97
2022-11-05T03:22:55.128Z,15.80
2022-11-05T03:25:25.544Z,22.50
2022-11-05T03:27:59.874Z,26.23
2022-11-05T03:30:28.436Z,20.60
2022-11-05T03:33:07.018Z,21.67
2022-11-05T03:35:41.221Z,23.43
2022-11-05T03:38:14.860Z,26.47
2022-11-05T03:40:47.726Z,28.33
2022-11-05T03:43:17.785Z,23.00
2022-11-05T03:45:51.488Z,19.40
2022-11-05T03:48:21.917Z,23.53
2022-11-05T03:51:00.070Z,23.67
2022-11-05T03:53:31.755Z,16.53
2022-11-05T03:56:06.393Z,22.70
2022-11-05T03:58:36.910Z,18.17
2022-11-05T04:01:06.061Z,23.93
2022-11-05T04:03:37.913Z,21.07
2022-11-05T04:06:28.451Z,22.03
2022-11-05T04:09:14.974Z,17.60
2022-11-05T04:12:00.589Z,27.83
2022-11-05T04:14:29.433Z,20.93
2022-11-05T04:17:09.538Z,19.43
2022-11-05T04:19:57.844Z,24.30
2022-11-05T04:22:46.827Z,13.57
2022-11-05T04:25:19.186Z,20.40
2022-11-05T04:27:48.308Z,20.40
2022-11-05T04:30:21.118Z,18.40
2022-11-05T04:33:04.154Z,26.30
2022-11-05T04:35:34.732Z,20.83
2022-11-05T04:38:05.476Z,18.53
2022-11-05T04:40:34.477Z,15.83
2022-11-05T04:43:02.482Z,20.50
2022-11-05T04:45:35.534Z,20.40
2022-11-05T04:48:04.367Z,24.00
2022-11-05T04:50:32.594Z,31.23
2022-11-05T04:53:01.593Z,21.37
2022-11-05T04:55:31.175Z,21.10
2022-11-05T04:57:59.758Z,22.60
2022-11-05T05:00:28.346Z,23.40
2022-11-05T05:02:56.768Z,24.50
2022-11-05T05:05:24.838Z,31.23
2022-11-05T05:07:53.965Z,33.20
2022-11-05T05:10:21.965Z,32.53
2022-11-05T05:12:52.131Z,30.93
2022-11-05T05:15:21.661Z,30.60
2022-11-05T05:17:52.141Z,35.77
2022-11-05T05:20:38.823Z,31.90
2022-11-05T05:23:06.868Z,36.13
2022-11-05T05:25:36.895Z,39.83
2022-11-05T05:28:08.128Z,34.40
2022-11-05T05:30:36.792Z,33.00
2022-11-05T05:33:05.955Z,32.57
2022-11-05T05:35:35.298Z,33.00
2022-11-05T05:38:03.484Z,38.13
2022-11-05T05:40:31.688Z,35.97
2022-11-05T05:43:01.259Z,33.47
2022-11-05T05:45:32.082Z,31.43
2022-11-05T05:48:01.128Z,35.07
2022-11-05T05:50:35.692Z,37.33
2022-11-05T05:53:12.144Z,28.70
2022-11-05T05:55:41.862Z,28.10
2022-11-05T05:58:10.211Z,32.20
2022-11-05T06:00:52.728Z,36.33
2022-11-05T06:03:21.314Z,25.63
2022-11-05T06:05:49.703Z,26.70
2022-11-05T06:08:18.692Z,28.43
2022-11-05T06:10:59.163Z,30.90
2022-11-05T06:13:41.220Z,25.50
2022-11-05T06:16:12.403Z,23.63
2022-11-05T06:18:45.037Z,21.87
2022-11-05T06:21:37.723Z,28.87
2022-11-05T06:24:07.328Z,27.07
2022-11-05T06:26:43.486Z,27.27
2022-11-05T06:29:16.535Z,27.23
2022-11-05T06:31:46.366Z,23.00
2022-11-05T06:34:16.564Z,28.53
2022-11-05T06:36:45.040Z,21.30
2022-11-05T06:39:13.860Z,31.53
2022-11-05T06:42:12.177Z,26.60
2022-11-05T06:44:35.008Z,22.50
2022-11-05T06:47:05.393Z,26.47
2022-11-05T06:49:34.191Z,26.93
2022-11-05T06:52:03.046Z,20.27
2022-11-05T06:54:32.085Z,26.63
2022-11-05T06:57:00.696Z,25.60
2022-11-05T06:59:29.034Z,22.57
2022-11-05T07:01:58.019Z,23.50
2022-11-05T07:04:28.039Z,31.57
2022-11-05T07:06:57.068Z,26.70
2022-11-05T07:09:25.527Z,21.20
2022-11-05T07:11:54.556Z,27.07
2022-11-05T07:14:23.490Z,26.70
2022-11-05T07:16:52.307Z,26.33
2022-11-05T07:19:20.898Z,36.93
2022-11-05T07:21:51.947Z,29.50
2022-11-05T07:24:20.424Z,31.37
2022-11-05T07:26:48.950Z,29.67
2022-11-05T07:29:18.890Z,32.47
2022-11-05T07:31:48.051Z,31.43
2022-11-05T07:34:16.799Z,40.17
2022-11-05T07:36:45.302Z,25.60
2022-11-05T07:39:15.561Z,29.17
2022-11-05T07:41:43.970Z,31.87
2022-11-05T07:44:14.486Z,34.33
2022-11-05T07:46:43.285Z,26.63
2022-11-05T07:49:11.580Z,40.80
2022-11-05T07:51:40.266Z,32.00
2022-11-05T07:54:08.522Z,35.27
2022-11-05T07:56:38.665Z,34.73
2022-11-05T07:59:09.649Z,30.57
2022-11-05T08:01:38.278Z,33.70
2022-11-05T08:04:07.449Z,29.13
2022-11-05T08:06:35.989Z,32.60
2022-11-05T08:09:04.746Z,36.43
2022-11-05T08:11:35.079Z,32.83
2022-11-05T08:14:07.804Z,35.93
2022-11-05T08:16:38.300Z,31.33
2022-11-05T08:19:07.707Z,34.97
2022-11-05T08:21:35.991Z,29.33
2022-11-05T08:24:05.296Z,29.20
2022-11-05T08:26:34.735Z,33.47
2022-11-05T08:29:04.087Z,26.77
2022-11-05T08:31:37.402Z,31.87
2022-11-05T08:34:05.844Z,26.23
2022-11-05T08:36:36.239Z,29.43
2022-11-05T08:39:05.426Z,30.63
2022-11-05T08:41:33.881Z,29.70
2022-11-05T08:44:02.350Z,26.53
2022-11-05T08:46:30.772Z,24.00
2022-11-05T08:49:00.591Z,24.03
2022-11-05T08:51:30.170Z,26.00
2022-11-05T08:53:59.120Z,23.47
2022-11-05T08:56:27.568Z,23.13
2022-11-05T08:58:56.151Z,29.13
2022-11-05T09:01:25.453Z,22.57
2022-11-05T09:03:54.271Z,23.33
2022-11-05T09:06:24.727Z,24.37
2022-11-05T09:08:53.703Z,23.43
2022-11-05T09:11:22.303Z,26.17
2022-11-05T09:13:51.452Z,28.93
2022-11-05T09:16:22.791Z,30.00
2022-11-05T09:18:51.581Z,20.40
2022-11-05T09:21:20.543Z,20.30
2022-11-05T09:23:51.309Z,16.73
2022-11-05T09:26:20.088Z,17.50
2022-11-05T09:28:48.473Z,17.80
2022-11-05T09:34:08.813Z,16.67
2022-11-05T09:36:38.369Z,19.87
2022-11-05T09:39:16.167Z,19.43
2022-11-05T09:41:59.245Z,18.93
2022-11-05T09:44:40.513Z,18.20
2022-11-05T09:57:17.780Z,20.30
2022-11-05T09:59:49.945Z,19.67
2022-11-05T10:02:22.006Z,18.33
2022-11-05T10:04:56.363Z,18.07
2022-11-05T10:07:30.251Z,14.63
2022-11-05T10:10:03.271Z,15.17
2022-11-05T10:12:41.533Z,14.70
2022-11-05T10:15:16.050Z,11.60
2022-11-05T10:17:51.917Z,21.10
2022-11-05T10:20:26.048Z,11.47
2022-11-05T10:22:57.613Z,15.00
2022-11-05T10:25:31.512Z,11.80
2022-11-05T10:28:01.688Z,11.87
2022-11-05T10:30:29.902Z,9.50
2022-11-05T10:33:00.900Z,9.27
2022-11-05T10:35:32.434Z,13.63
2022-11-05T10:38:03.318Z,9.83
2022-11-05T10:40:40.678Z,10.17
2022-11-05T10:43:16.921Z,7.83
2022-11-05T10:45:53.448Z,9.03
2022-11-05T10:48:43.646Z,9.97
2022-11-05T10:51:13.695Z,9.20
2022-11-05T10:53:49.778Z,11.37
2022-11-05T10:56:33.368Z,9.50
2022-11-05T10:59:10.947Z,10.03
2022-11-05T11:01:41.040Z,5.83
2022-11-05T11:04:18.044Z,7.97
2022-11-05T11:06:51.195Z,10.70
2022-11-05T11:09:24.846Z,8.63
2022-11-05T11:12:01.679Z,11.60
2022-11-05T11:14:35.263Z,10.33
2022-11-05T11:17:26.536Z,7.70
2022-11-05T11:20:20.968Z,4.67
2022-11-05T11:23:01.199Z,6.60
2022-11-05T11:25:31.978Z,8.37
2022-11-05T11:28:04.588Z,10.33
2022-11-05T11:30:35.720Z,8.60
2022-11-05T11:33:10.345Z,7.63
2022-11-05T11:35:40.170Z,6.30
2022-11-05T11:38:14.537Z,10.33
2022-11-05T11:40:43.792Z,5.50
2022-11-05T11:43:21.454Z,10.70
2022-11-05T11:45:54.128Z,8.07
2022-11-05T11:48:25.619Z,9.30
2022-11-05T11:50:55.102Z,7.90
2022-11-05T11:53:29.738Z,8.37
2022-11-05T11:56:07.087Z,10.40
2022-11-05T11:58:42.766Z,8.83
2022-11-05T12:01:32.800Z,6.47
2022-11-05T12:04:10.796Z,6.80
2022-11-05T12:06:48.535Z,4.47
2022-11-05T12:09:25.518Z,4.70
2022-11-05T12:12:01.554Z,7.47
2022-11-05T12:14:42.319Z,6.03
2022-11-05T12:17:27.964Z,7.03
2022-11-05T12:20:26.666Z,6.30
2022-11-05T12:23:37.186Z,5.50
2022-11-05T12:26:17.180Z,3.77
2022-11-05T12:32:03.133Z,8.80
2022-11-05T12:34:48.694Z,10.70
2022-11-05T12:37:32.347Z,6.43
2022-11-05T12:40:34.856Z,4.00
2022-11-05T12:43:13.512Z,7.67
2022-11-05T12:45:49.713Z,10.00
2022-11-05T12:48:38.387Z,5.77
2022-11-05T12:51:21.348Z,14.60
2022-11-05T12:53:59.622Z,8.80
2022-11-05T12:56:34.451Z,5.23
2022-11-05T12:59:13.663Z,10.00
2022-11-05T13:01:50.433Z,9.03
2022-11-05T13:04:36.661Z,9.23
2022-11-05T13:07:10.573Z,7.50
2022-11-05T13:09:45.030Z,6.10
2022-11-05T13:12:18.276Z,12.30
2022-11-05T13:14:54.991Z,10.10
2022-11-05T13:17:27.217Z,8.93
2022-11-05T13:20:03.191Z,8.33
2022-11-05T13:22:39.176Z,7.30
2022-11-05T13:25:17.923Z,6.93
2022-11-05T13:27:53.716Z,7.60
2022-11-05T13:30:24.029Z,7.03
2022-11-05T13:33:00.275Z,6.90
2022-11-05T13:35:31.787Z,7.23
2022-11-05T13:38:24.650Z,9.63
2022-11-05T13:41:07.283Z,7.43
2022-11-05T13:44:12.245Z,6.53
2022-11-05T13:46:55.080Z,5.87
2022-11-05T13:49:43.797Z,9.97
2022-11-05T13:52:28.136Z,9.30
2022-11-05T13:55:19.600Z,7.53
2022-11-05T13:58:14.507Z,6.70
2022-11-05T14:00:49.702Z,5.90
2022-11-05T14:03:21.236Z,9.00
2022-11-05T14:05:55.934Z,6.07
2022-11-05T14:08:28.710Z,8.87
2022-11-05T14:11:04.552Z,5.07
2022-11-05T14:13:35.772Z,9.70
2022-11-05T14:16:09.297Z,9.60
2022-11-05T14:19:24.469Z,6.00
2022-11-05T14:21:54.576Z,5.97
2022-11-05T14:24:40.478Z,7.47
2022-11-05T14:27:53.550Z,5.33
2022-11-05T14:30:47.013Z,6.40
2022-11-05T14:33:32.089Z,7.27
2022-11-05T14:36:32.867Z,6.00
2022-11-05T14:39:19.785Z,4.60
2022-11-05T14:42:01.434Z,6.13
2022-11-05T14:44:36.407Z,7.90
2022-11-05T14:47:20.685Z,8.00
2022-11-05T14:49:54.374Z,5.10
2022-11-05T14:52:22.982Z,3.93
2022-11-05T14:54:53.444Z,9.70
2022-11-05T14:57:55.432Z,6.00
2022-11-05T15:00:55.533Z,5.77
2022-11-05T15:03:42.577Z,8.83
2022-11-05T15:06:26.697Z,5.77
2022-11-05T15:09:15.430Z,4.03
2022-11-05T15:11:53.510Z,3.40
2022-11-05T15:14:27.973Z,8.37
2022-11-05T15:17:05.229Z,5.53
2022-11-05T15:19:38.340Z,6.00
2022-11-05T15:22:21.939Z,7.03
2022-11-05T15:24:53.816Z,6.57
2022-11-05T15:27:35.779Z,9.00
2022-11-05T15:30:14.721Z,4.43
2022-11-05T15:32:43.697Z,6.20
2022-11-05T15:35:24.619Z,21.87
2022-11-05T15:37:57.422Z,6.80
2022-11-05T15:40:35.389Z,14.00
2022-11-05T15:43:20.138Z,5.20
2022-11-05T15:46:17.947Z,6.00
2022-11-05T15:48:53.110Z,6.23
2022-11-05T15:51:24.339Z,6.17
2022-11-05T15:56:50.808Z,5.03
2022-11-05T15:59:24.405Z,8.70
2022-11-05T16:01:56.153Z,9.40
2022-11-05T16:04:26.615Z,8.77
2022-11-05T16:06:59.790Z,7.43
2022-11-05T16:09:31.127Z,7.03
2022-11-05T16:12:28.070Z,10.97
2022-11-05T16:15:04.537Z,7.57
2022-11-05T16:17:45.480Z,6.50
2022-11-05T16:20:30.036Z,4.97
2022-11-05T16:23:01.253Z,11.47
2022-11-05T16:25:45.773Z,7.10
2022-11-05T16:28:23.065Z,6.10
2022-11-05T16:30:56.685Z,6.03
2022-11-05T16:33:26.235Z,5.37
2022-11-05T16:35:54.419Z,3.97
2022-11-05T16:38:24.489Z,5.70
2022-11-05T16:40:52.568Z,5.93
2022-11-05T16:43:24.867Z,3.90
2022-11-05T16:45:55.753Z,5.23
2022-11-05T16:48:24.348Z,5.20
2022-11-05T16:50:54.345Z,7.10
2022-11-05T16:53:24.338Z,4.97
2022-11-05T16:55:52.526Z,8.30
2022-11-05T16:58:22.856Z,13.67
2022-11-05T17:00:53.160Z,7.57
2022-11-05T17:03:21.417Z,4.40
2022-11-05T17:05:49.630Z,6.17
2022-11-05T17:08:18.524Z,5.60
2022-11-05T17:10:47.939Z,6.13
2022-11-05T17:13:19.443Z,7.93
2022-11-05T17:15:50.377Z,7.47
2022-11-05T17:18:19.649Z,5.43
2022-11-05T17:20:49.872Z,6.17
2022-11-05T17:23:19.534Z,3.80
2022-11-05T17:25:54.847Z,4.97
2022-11-05T17:28:23.777Z,5.47
2022-11-05T17:30:53.358Z,5.60
2022-11-05T17:33:24.613Z,4.83
2022-11-05T17:35:56.157Z,5.43
2022-11-05T17:38:26.378Z,5.20
2022-11-05T17:40:55.761Z,6.13
2022-11-05T17:43:24.762Z,8.60
2022-11-05T17:45:55.808Z,7.30
2022-11-05T17:48:25.611Z,4.37
2022-11-05T17:50:54.025Z,7.40
2022-11-05T17:53:22.375Z,3.90
2022-11-05T17:55:50.391Z,4.57
2022-11-05T17:58:20.190Z,4.33
2022-11-05T18:00:49.566Z,4.00
2022-11-05T18:03:17.594Z,6.40
2022-11-05T18:05:46.264Z,6.53
2022-11-05T18:08:14.659Z,3.10
2022-11-05T18:10:43.218Z,12.70
2022-11-05T18:13:12.238Z,5.40
2022-11-05T18:15:42.793Z,2.87
2022-11-05T18:18:11.634Z,4.47
2022-11-05T18:20:40.170Z,5.33
2022-11-05T18:23:09.807Z,9.47
2022-11-05T18:25:40.370Z,3.80
2022-11-05T18:28:10.858Z,4.67
2022-11-05T18:30:39.583Z,4.77
2022-11-05T18:33:11.930Z,10.03
2022-11-05T18:35:44.444Z,8.97
2022-11-05T18:38:13.428Z,5.73
2022-11-05T18:40:41.631Z,5.53
2022-11-05T18:43:10.525Z,4.70
2022-11-05T18:45:39.784Z,9.03
2022-11-05T18:48:12.421Z,9.63
2022-11-05T18:50:40.991Z,6.27
2022-11-05T18:53:09.114Z,9.17
2022-11-05T18:55:39.646Z,8.70
2022-11-05T18:58:09.270Z,7.17
2022-11-05T19:00:39.758Z,5.87
2022-11-05T19:03:09.840Z,7.87
2022-11-05T19:05:37.889Z,8.53
2022-11-05T19:08:09.597Z,7.17
2022-11-05T19:10:41.396Z,5.17
2022-11-05T19:13:09.972Z,8.10
2022-11-05T19:15:37.985Z,6.87
2022-11-05T19:18:06.263Z,6.47
2022-11-05T19:20:37.927Z,9.30
2022-11-05T19:23:06.238Z,5.83
2022-11-05T19:25:34.322Z,4.87
2022-11-05T19:28:02.874Z,6.87
2022-11-05T19:30:31.116Z,6.17
2022-11-05T19:32:59.789Z,6.90
2022-11-05T19:35:28.437Z,10.80
2022-11-05T19:38:00.716Z,8.87
2022-11-05T19:40:29.940Z,6.60
2022-11-05T19:42:59.714Z,8.93
2022-11-05T19:45:44.234Z,6.93
2022-11-05T19:48:19.138Z,7.30
2022-11-05T19:50:48.122Z,6.07
2022-11-05T19:53:17.954Z,6.27
2022-11-05T19:55:46.291Z,4.63
2022-11-05T19:58:14.752Z,11.07
2022-11-05T20:00:44.237Z,6.33
2022-11-05T20:03:13.130Z,6.87
2022-11-05T20:05:41.472Z,8.57
2022-11-05T20:08:09.729Z,8.63
2022-11-05T20:10:39.744Z,6.57
2022-11-05T20:13:08.730Z,9.67
2022-11-05T20:15:38.520Z,7.80
2022-11-05T20:18:08.838Z,5.97
2022-11-05T20:20:37.295Z,5.30
2022-11-05T20:23:05.388Z,8.20
2022-11-05T20:25:34.337Z,8.13
2022-11-05T20:28:03.848Z,6.20
2022-11-05T20:30:32.460Z,7.47
2022-11-05T20:33:00.542Z,7.83
2022-11-05T20:35:30.662Z,13.77
2022-11-05T20:37:59.709Z,9.20
2022-11-05T20:40:27.715Z,5.37
2022-11-05T20:42:56.226Z,9.83
2022-11-05T20:45:26.984Z,6.80
2022-11-05T20:47:55.946Z,6.20
2022-11-05T20:50:24.756Z,7.20
2022-11-05T20:52:52.782Z,10.50
2022-11-05T20:55:21.464Z,5.73
2022-11-05T20:57:49.456Z,7.83
2022-11-05T21:00:17.862Z,5.70
2022-11-05T21:02:47.570Z,7.07
2022-11-05T21:05:19.627Z,9.43
2022-11-05T21:07:47.621Z,7.17
2022-11-05T21:10:15.925Z,5.67
2022-11-05T21:12:44.953Z,7.30
2022-11-05T21:15:13.023Z,8.03
2022-11-05T21:17:41.662Z,7.93
2022-11-05T21:20:12.290Z,12.73
2022-11-05T21:22:42.929Z,10.03
2022-11-05T21:25:11.170Z,6.60
2022-11-05T21:27:43.463Z,10.20
2022-11-05T21:30:12.829Z,10.57
2022-11-05T21:32:41.294Z,7.07
2022-11-05T21:35:11.160Z,8.47
2022-11-05T21:37:39.728Z,14.73
2022-11-05T21:40:08.723Z,10.23
2022-11-05T21:42:36.898Z,9.80
2022-11-05T21:45:09.042Z,11.63
2022-11-05T21:47:37.092Z,7.97
2022-11-05T21:50:05.877Z,10.30
2022-11-05T21:52:53.615Z,9.37
2022-11-05T21:55:39.840Z,14.20
2022-11-05T21:58:30.338Z,10.70
2022-11-05T22:00:59.490Z,12.20
2022-11-05T22:03:27.494Z,10.87
2022-11-05T22:05:58.102Z,10.83
2022-11-05T22:08:28.210Z,8.90
2022-11-05T22:10:56.386Z,8.07
2022-11-05T22:13:24.360Z,10.50
2022-11-05T22:15:56.694Z,11.27
2022-11-05T22:18:24.757Z,9.23
2022-11-05T22:20:53.008Z,8.60
2022-11-05T22:23:21.290Z,9.10
2022-11-05T22:25:50.604Z,13.53
2022-11-05T22:28:19.241Z,11.70
2022-11-05T22:30:47.243Z,8.23
2022-11-05T22:33:17.059Z,7.97
2022-11-05T22:35:45.504Z,10.93
2022-11-05T22:38:14.301Z,10.40
2022-11-05T22:40:45.482Z,9.60
2022-11-05T22:43:14.879Z,8.13
2022-11-05T22:45:43.919Z,8.70
2022-11-05T22:48:12.420Z,9.50
2022-11-05T22:50:43.676Z,8.30
2022-11-05T22:53:12.384Z,10.50
2022-11-05T22:55:41.123Z,11.70
2022-11-05T22:58:09.456Z,11.53
2022-11-05T23:00:39.809Z,6.43
2022-11-05T23:03:08.080Z,10.90
2022-11-05T23:05:36.154Z,8.70
2022-11-05T23:08:22.837Z,9.50
2022-11-05T23:11:22.871Z,9.40
2022-11-05T23:13:51.037Z,9.13
2022-11-05T23:16:38.302Z,11.23
2022-11-05T23:19:23.928Z,8.73
2022-11-05T23:22:09.458Z,8.90
2022-11-05T23:24:37.533Z,8.43
2022-11-05T23:27:07.962Z,10.53
2022-11-05T23:29:36.427Z,8.60
2022-11-05T23:32:25.441Z,9.27
2022-11-05T23:34:54.342Z,8.60
2022-11-05T23:37:40.831Z,7.00
2022-11-05T23:40:12.482Z,7.23
2022-11-05T23:43:10.562Z,10.20
2022-11-05T23:46:00.065Z,9.73
2022-11-05T23:48:32.155Z,8.30
2022-11-05T23:51:03.348Z,7.40
2022-11-05T23:53:34.756Z,7.23
2022-11-05T23:56:06.801Z,10.20
2022-11-05T23:58:35.234Z,8.30
